Marcus, South Dakota
Current Conditions -  °F | °C
As of 1:58 AM on Saturday 20 Dec 2014 (Local Time) from KRCA Reporting Station
Clear Clear  
Wind Chill: 16°   Ceiling: Unl
Heat Index: 25°   Visibility: 10mi
Dew Point: 18°   Wind: 8mph
Humidity: 74%   Direction: 290°WNW
Pressure: 29.88"   Gusts: NA
Location:  44.4145°N, 103.17°W
Report Text: KRCA 200858Z AUTO 29007KT 10SM CLR M04/M08 A2988 RMK AO2 SLP147 T10401080 55004 $
Loading
Personal Weather Stations






























Interactive Weather Map New forecast layout! Learn more

10-Day Weather Forecast

Advertisements
Track Severe Weather on mobile